sensor_id;sensor_type;location;lat;lon;timestamp;P1;durP1;ratioP1;P2;durP2;ratioP2
10412;SDS011;5252;42.602;23.386;2022-10-01T00:02:09;8.40;;;7.63;;
10412;SDS011;5252;42.602;23.386;2022-10-01T00:04:37;8.25;;;7.38;;
10412;SDS011;5252;42.602;23.386;2022-10-01T00:07:04;8.07;;;7.38;;
10412;SDS011;5252;42.602;23.386;2022-10-01T00:09:34;8.25;;;7.50;;
10412;SDS011;5252;42.602;23.386;2022-10-01T00:12:01;8.05;;;7.35;;
10412;SDS011;5252;42.602;23.386;2022-10-01T00:14:28;9.07;;;8.10;;
10412;SDS011;5252;42.602;23.386;2022-10-01T00:16:55;9.02;;;8.25;;
10412;SDS011;5252;42.602;23.386;2022-10-01T00:19:24;8.60;;;7.80;;
10412;SDS011;5252;42.602;23.386;2022-10-01T00:21:52;9.10;;;7.55;;
10412;SDS011;5252;42.602;23.386;2022-10-01T00:24:19;8.35;;;7.55;;
10412;SDS011;5252;42.602;23.386;2022-10-01T00:26:45;10.20;;;8.23;;
10412;SDS011;5252;42.602;23.386;2022-10-01T00:29:13;8.90;;;8.10;;
10412;SDS011;5252;42.602;23.386;2022-10-01T00:31:40;8.80;;;8.10;;
10412;SDS011;5252;42.602;23.386;2022-10-01T00:34:06;8.60;;;7.70;;
10412;SDS011;5252;42.602;23.386;2022-10-01T00:36:33;8.43;;;7.75;;
10412;SDS011;5252;42.602;23.386;2022-10-01T00:39:01;8.95;;;8.05;;
10412;SDS011;5252;42.602;23.386;2022-10-01T00:41:29;9.15;;;8.40;;
10412;SDS011;5252;42.602;23.386;2022-10-01T00:43:56;8.93;;;8.23;;
10412;SDS011;5252;42.602;23.386;2022-10-01T00:46:24;9.10;;;8.30;;
10412;SDS011;5252;42.602;23.386;2022-10-01T00:48:53;8.63;;;7.93;;
10412;SDS011;5252;42.602;23.386;2022-10-01T00:51:23;9.10;;;8.30;;
10412;SDS011;5252;42.602;23.386;2022-10-01T00:53:50;10.40;;;8.45;;
10412;SDS011;5252;42.602;23.386;2022-10-01T00:56:18;9.98;;;9.02;;
10412;SDS011;5252;42.602;23.386;2022-10-01T00:58:44;10.98;;;9.15;;
10412;SDS011;5252;42.602;23.386;2022-10-01T01:01:11;9.95;;;9.05;;
10412;SDS011;5252;42.602;23.386;2022-10-01T01:03:38;9.90;;;8.88;;
10412;SDS011;5252;42.602;23.386;2022-10-01T01:06:04;10.45;;;9.55;;
10412;SDS011;5252;42.602;23.386;2022-10-01T01:08:32;9.65;;;8.80;;
10412;SDS011;5252;42.602;23.386;2022-10-01T01:11:00;9.38;;;8.45;;
10412;SDS011;5252;42.602;23.386;2022-10-01T01:13:32;10.38;;;9.48;;
10412;SDS011;5252;42.602;23.386;2022-10-01T01:16:02;9.73;;;8.93;;
10412;SDS011;5252;42.602;23.386;2022-10-01T01:18:32;10.45;;;9.55;;
10412;SDS011;5252;42.602;23.386;2022-10-01T01:21:09;10.07;;;9.18;;
10412;SDS011;5252;42.602;23.386;2022-10-01T01:26:23;9.40;;;8.57;;
10412;SDS011;5252;42.602;23.386;2022-10-01T01:28:55;9.73;;;8.90;;
10412;SDS011;5252;42.602;23.386;2022-10-01T01:31:23;9.85;;;8.85;;
10412;SDS011;5252;42.602;23.386;2022-10-01T01:33:52;10.38;;;9.48;;
10412;SDS011;5252;42.602;23.386;2022-10-01T01:36:21;10.10;;;9.10;;
10412;SDS011;5252;42.602;23.386;2022-10-01T01:38:51;9.63;;;8.82;;
10412;SDS011;5252;42.602;23.386;2022-10-01T01:41:19;10.23;;;9.20;;
10412;SDS011;5252;42.602;23.386;2022-10-01T01:43:46;10.05;;;9.02;;
10412;SDS011;5252;42.602;23.386;2022-10-01T01:46:16;9.32;;;8.63;;
10412;SDS011;5252;42.602;23.386;2022-10-01T01:48:44;9.70;;;8.80;;
10412;SDS011;5252;42.602;23.386;2022-10-01T01:51:15;9.55;;;8.75;;
10412;SDS011;5252;42.602;23.386;2022-10-01T01:53:43;11.25;;;8.55;;
10412;SDS011;5252;42.602;23.386;2022-10-01T01:56:10;9.35;;;8.55;;
10412;SDS011;5252;42.602;23.386;2022-10-01T01:58:37;10.07;;;9.07;;
10412;SDS011;5252;42.602;23.386;2022-10-01T02:01:03;9.85;;;8.85;;
10412;SDS011;5252;42.602;23.386;2022-10-01T02:03:31;10.98;;;9.95;;
10412;SDS011;5252;42.602;23.386;2022-10-01T02:06:01;9.80;;;8.90;;
10412;SDS011;5252;42.602;23.386;2022-10-01T02:08:33;9.43;;;8.63;;
10412;SDS011;5252;42.602;23.386;2022-10-01T02:11:03;9.73;;;8.82;;
10412;SDS011;5252;42.602;23.386;2022-10-01T02:13:39;10.43;;;9.50;;
10412;SDS011;5252;42.602;23.386;2022-10-01T02:16:10;9.40;;;8.60;;
10412;SDS011;5252;42.602;23.386;2022-10-01T02:18:45;9.68;;;8.88;;
10412;SDS011;5252;42.602;23.386;2022-10-01T02:21:15;9.63;;;8.65;;
10412;SDS011;5252;42.602;23.386;2022-10-01T02:23:46;9.20;;;8.40;;
10412;SDS011;5252;42.602;23.386;2022-10-01T02:26:15;9.30;;;8.50;;
10412;SDS011;5252;42.602;23.386;2022-10-01T02:28:43;9.25;;;8.35;;
10412;SDS011;5252;42.602;23.386;2022-10-01T02:31:11;9.32;;;8.48;;
10412;SDS011;5252;42.602;23.386;2022-10-01T02:33:38;9.05;;;8.35;;
10412;SDS011;5252;42.602;23.386;2022-10-01T02:36:07;9.52;;;8.55;;
10412;SDS011;5252;42.602;23.386;2022-10-01T02:38:35;9.50;;;8.68;;
10412;SDS011;5252;42.602;23.386;2022-10-01T02:41:03;9.65;;;8.75;;
10412;SDS011;5252;42.602;23.386;2022-10-01T02:43:31;9.52;;;8.73;;
10412;SDS011;5252;42.602;23.386;2022-10-01T02:46:00;9.85;;;8.85;;
10412;SDS011;5252;42.602;23.386;2022-10-01T02:48:28;9.68;;;8.30;;
10412;SDS011;5252;42.602;23.386;2022-10-01T02:50:56;10.35;;;9.23;;
10412;SDS011;5252;42.602;23.386;2022-10-01T02:53:27;9.57;;;8.75;;
10412;SDS011;5252;42.602;23.386;2022-10-01T02:55:56;9.95;;;9.15;;
10412;SDS011;5252;42.602;23.386;2022-10-01T02:58:23;10.05;;;9.15;;
10412;SDS011;5252;42.602;23.386;2022-10-01T03:00:49;9.75;;;8.85;;
10412;SDS011;5252;42.602;23.386;2022-10-01T03:03:17;9.27;;;8.38;;
10412;SDS011;5252;42.602;23.386;2022-10-01T03:05:43;9.35;;;8.45;;
10412;SDS011;5252;42.602;23.386;2022-10-01T03:08:10;11.55;;;7.65;;
10412;SDS011;5252;42.602;23.386;2022-10-01T03:10:38;8.93;;;7.35;;
10412;SDS011;5252;42.602;23.386;2022-10-01T03:13:04;9.40;;;7.72;;
10412;SDS011;5252;42.602;23.386;2022-10-01T03:15:32;7.88;;;6.75;;
10412;SDS011;5252;42.602;23.386;2022-10-01T03:17:58;7.85;;;7.15;;
10412;SDS011;5252;42.602;23.386;2022-10-01T03:20:25;8.90;;;7.25;;
10412;SDS011;5252;42.602;23.386;2022-10-01T03:22:51;8.68;;;7.00;;
10412;SDS011;5252;42.602;23.386;2022-10-01T03:25:18;8.57;;;7.68;;
10412;SDS011;5252;42.602;23.386;2022-10-01T03:27:46;9.80;;;7.50;;
10412;SDS011;5252;42.602;23.386;2022-10-01T03:30:13;8.68;;;7.90;;
10412;SDS011;5252;42.602;23.386;2022-10-01T03:32:40;9.13;;;8.15;;
10412;SDS011;5252;42.602;23.386;2022-10-01T03:35:07;8.38;;;7.57;;
10412;SDS011;5252;42.602;23.386;2022-10-01T03:37:33;8.90;;;8.00;;
10412;SDS011;5252;42.602;23.386;2022-10-01T03:40:00;9.07;;;8.18;;
10412;SDS011;5252;42.602;23.386;2022-10-01T03:42:27;8.70;;;7.90;;
10412;SDS011;5252;42.602;23.386;2022-10-01T03:44:55;8.80;;;7.90;;
10412;SDS011;5252;42.602;23.386;2022-10-01T03:47:21;9.63;;;8.63;;
10412;SDS011;5252;42.602;23.386;2022-10-01T03:49:48;8.38;;;7.57;;
10412;SDS011;5252;42.602;23.386;2022-10-01T03:52:15;7.97;;;7.28;;
10412;SDS011;5252;42.602;23.386;2022-10-01T03:54:42;8.57;;;7.88;;
10412;SDS011;5252;42.602;23.386;2022-10-01T03:57:08;8.85;;;7.90;;
10412;SDS011;5252;42.602;23.386;2022-10-01T03:59:35;9.40;;;8.00;;
10412;SDS011;5252;42.602;23.386;2022-10-01T04:02:03;9.05;;;8.27;;
10412;SDS011;5252;42.602;23.386;2022-10-01T04:04:29;8.85;;;8.02;;
10412;SDS011;5252;42.602;23.386;2022-10-01T04:06:56;9.10;;;8.30;;
10412;SDS011;5252;42.602;23.386;2022-10-01T04:09:22;10.15;;;8.80;;
10412;SDS011;5252;42.602;23.386;2022-10-01T04:11:49;9.18;;;8.27;;
10412;SDS011;5252;42.602;23.386;2022-10-01T04:14:15;9.77;;;8.43;;
10412;SDS011;5252;42.602;23.386;2022-10-01T04:16:42;9.10;;;8.32;;
10412;SDS011;5252;42.602;23.386;2022-10-01T04:19:10;9.82;;;9.02;;
10412;SDS011;5252;42.602;23.386;2022-10-01T04:21:37;10.38;;;9.38;;
10412;SDS011;5252;42.602;23.386;2022-10-01T04:24:03;9.65;;;8.75;;
10412;SDS011;5252;42.602;23.386;2022-10-01T04:26:30;9.48;;;8.57;;
10412;SDS011;5252;42.602;23.386;2022-10-01T04:28:57;9.38;;;8.57;;
10412;SDS011;5252;42.602;23.386;2022-10-01T04:31:23;11.52;;;8.73;;
10412;SDS011;5252;42.602;23.386;2022-10-01T04:33:50;9.10;;;8.30;;
10412;SDS011;5252;42.602;23.386;2022-10-01T04:36:18;9.35;;;8.55;;
10412;SDS011;5252;42.602;23.386;2022-10-01T04:38:44;9.38;;;8.52;;
10412;SDS011;5252;42.602;23.386;2022-10-01T04:41:11;9.45;;;8.55;;
10412;SDS011;5252;42.602;23.386;2022-10-01T04:43:38;8.85;;;8.02;;
10412;SDS011;5252;42.602;23.386;2022-10-01T04:46:05;9.57;;;8.77;;
10412;SDS011;5252;42.602;23.386;2022-10-01T04:48:32;9.18;;;8.27;;
10412;SDS011;5252;42.602;23.386;2022-10-01T04:50:59;9.48;;;8.63;;
10412;SDS011;5252;42.602;23.386;2022-10-01T04:53:27;9.57;;;8.45;;
10412;SDS011;5252;42.602;23.386;2022-10-01T04:55:54;9.07;;;8.30;;
10412;SDS011;5252;42.602;23.386;2022-10-01T04:58:20;8.57;;;7.78;;
10412;SDS011;5252;42.602;23.386;2022-10-01T05:00:47;9.13;;;8.25;;
10412;SDS011;5252;42.602;23.386;2022-10-01T05:03:13;9.05;;;8.23;;
10412;SDS011;5252;42.602;23.386;2022-10-01T05:05:40;8.27;;;7.57;;
10412;SDS011;5252;42.602;23.386;2022-10-01T05:08:07;8.52;;;7.63;;
10412;SDS011;5252;42.602;23.386;2022-10-01T05:10:35;9.15;;;8.25;;
10412;SDS011;5252;42.602;23.386;2022-10-01T05:13:02;7.80;;;6.97;;
10412;SDS011;5252;42.602;23.386;2022-10-01T05:15:28;10.82;;;7.30;;
10412;SDS011;5252;42.602;23.386;2022-10-01T05:17:55;8.77;;;7.28;;
10412;SDS011;5252;42.602;23.386;2022-10-01T05:20:23;7.90;;;6.70;;
10412;SDS011;5252;42.602;23.386;2022-10-01T05:22:50;8.43;;;7.60;;
10412;SDS011;5252;42.602;23.386;2022-10-01T05:25:17;7.50;;;6.80;;
10412;SDS011;5252;42.602;23.386;2022-10-01T05:27:45;9.60;;;7.22;;
10412;SDS011;5252;42.602;23.386;2022-10-01T05:30:12;8.02;;;6.60;;
10412;SDS011;5252;42.602;23.386;2022-10-01T05:32:51;7.63;;;6.50;;
10412;SDS011;5252;42.602;23.386;2022-10-01T05:35:18;7.10;;;6.50;;
10412;SDS011;5252;42.602;23.386;2022-10-01T05:37:45;6.65;;;6.05;;
10412;SDS011;5252;42.602;23.386;2022-10-01T05:40:12;5.82;;;5.43;;
10412;SDS011;5252;42.602;23.386;2022-10-01T05:42:45;5.72;;;5.07;;
10412;SDS011;5252;42.602;23.386;2022-10-01T05:45:12;6.07;;;5.32;;
10412;SDS011;5252;42.602;23.386;2022-10-01T05:47:38;6.43;;;5.50;;
10412;SDS011;5252;42.602;23.386;2022-10-01T05:50:07;6.03;;;5.43;;
10412;SDS011;5252;42.602;23.386;2022-10-01T05:52:33;6.13;;;5.07;;
10412;SDS011;5252;42.602;23.386;2022-10-01T05:55:00;5.30;;;4.80;;
10412;SDS011;5252;42.602;23.386;2022-10-01T05:57:27;5.32;;;4.82;;
10412;SDS011;5252;42.602;23.386;2022-10-01T05:59:55;6.95;;;4.70;;
10412;SDS011;5252;42.602;23.386;2022-10-01T06:02:22;6.18;;;4.50;;
10412;SDS011;5252;42.602;23.386;2022-10-01T06:04:48;5.78;;;4.97;;
10412;SDS011;5252;42.602;23.386;2022-10-01T06:07:15;5.10;;;4.60;;
10412;SDS011;5252;42.602;23.386;2022-10-01T06:09:41;4.93;;;4.43;;
10412;SDS011;5252;42.602;23.386;2022-10-01T06:12:09;5.50;;;4.97;;
10412;SDS011;5252;42.602;23.386;2022-10-01T06:14:35;5.32;;;4.82;;
10412;SDS011;5252;42.602;23.386;2022-10-01T06:17:04;4.88;;;4.38;;
10412;SDS011;5252;42.602;23.386;2022-10-01T06:19:31;5.85;;;3.70;;
10412;SDS011;5252;42.602;23.386;2022-10-01T06:21:57;4.30;;;3.90;;
10412;SDS011;5252;42.602;23.386;2022-10-01T06:24:24;7.00;;;3.85;;
10412;SDS011;5252;42.602;23.386;2022-10-01T06:26:50;5.22;;;4.72;;
10412;SDS011;5252;42.602;23.386;2022-10-01T06:29:17;7.05;;;4.95;;
10412;SDS011;5252;42.602;23.386;2022-10-01T06:31:44;10.10;;;5.30;;
10412;SDS011;5252;42.602;23.386;2022-10-01T06:34:11;8.10;;;5.63;;
10412;SDS011;5252;42.602;23.386;2022-10-01T06:36:38;10.23;;;5.88;;
10412;SDS011;5252;42.602;23.386;2022-10-01T06:39:05;8.43;;;5.32;;
10412;SDS011;5252;42.602;23.386;2022-10-01T06:41:31;6.30;;;5.70;;
10412;SDS011;5252;42.602;23.386;2022-10-01T06:43:58;11.57;;;5.85;;
10412;SDS011;5252;42.602;23.386;2022-10-01T06:46:25;6.53;;;5.90;;
10412;SDS011;5252;42.602;23.386;2022-10-01T06:48:52;7.55;;;5.25;;
10412;SDS011;5252;42.602;23.386;2022-10-01T06:51:20;7.07;;;5.03;;
10412;SDS011;5252;42.602;23.386;2022-10-01T06:54:07;8.40;;;5.22;;
10412;SDS011;5252;42.602;23.386;2022-10-01T06:56:34;5.40;;;4.82;;
10412;SDS011;5252;42.602;23.386;2022-10-01T06:59:01;6.47;;;5.10;;
10412;SDS011;5252;42.602;23.386;2022-10-01T07:01:27;9.68;;;6.03;;
10412;SDS011;5252;42.602;23.386;2022-10-01T07:03:55;8.32;;;5.72;;
10412;SDS011;5252;42.602;23.386;2022-10-01T07:06:24;8.57;;;5.60;;
10412;SDS011;5252;42.602;23.386;2022-10-01T07:08:51;9.07;;;6.63;;
10412;SDS011;5252;42.602;23.386;2022-10-01T07:11:18;10.85;;;7.47;;
10412;SDS011;5252;42.602;23.386;2022-10-01T07:13:44;10.75;;;7.57;;
10412;SDS011;5252;42.602;23.386;2022-10-01T07:16:11;10.40;;;7.90;;
10412;SDS011;5252;42.602;23.386;2022-10-01T07:18:38;11.18;;;7.68;;
10412;SDS011;5252;42.602;23.386;2022-10-01T07:21:05;14.45;;;7.82;;
10412;SDS011;5252;42.602;23.386;2022-10-01T07:23:33;10.85;;;7.57;;
10412;SDS011;5252;42.602;23.386;2022-10-01T07:25:59;14.23;;;8.65;;
10412;SDS011;5252;42.602;23.386;2022-10-01T07:28:28;14.30;;;7.60;;
10412;SDS011;5252;42.602;23.386;2022-10-01T07:30:56;7.68;;;6.32;;
10412;SDS011;5252;42.602;23.386;2022-10-01T07:33:23;9.90;;;5.97;;
10412;SDS011;5252;42.602;23.386;2022-10-01T07:35:50;7.55;;;5.32;;
10412;SDS011;5252;42.602;23.386;2022-10-01T07:38:16;5.47;;;4.47;;
10412;SDS011;5252;42.602;23.386;2022-10-01T07:40:46;7.32;;;4.85;;
10412;SDS011;5252;42.602;23.386;2022-10-01T07:43:15;6.57;;;5.38;;
10412;SDS011;5252;42.602;23.386;2022-10-01T07:45:42;11.80;;;6.10;;
10412;SDS011;5252;42.602;23.386;2022-10-01T07:48:11;6.93;;;5.93;;
10412;SDS011;5252;42.602;23.386;2022-10-01T07:50:39;9.98;;;5.80;;
10412;SDS011;5252;42.602;23.386;2022-10-01T07:53:07;6.72;;;5.30;;
10412;SDS011;5252;42.602;23.386;2022-10-01T07:55:34;6.50;;;5.45;;
10412;SDS011;5252;42.602;23.386;2022-10-01T07:58:02;9.30;;;5.35;;
10412;SDS011;5252;42.602;23.386;2022-10-01T08:00:30;8.02;;;5.47;;
10412;SDS011;5252;42.602;23.386;2022-10-01T08:02:57;9.48;;;5.13;;
10412;SDS011;5252;42.602;23.386;2022-10-01T08:05:24;8.13;;;5.60;;
10412;SDS011;5252;42.602;23.386;2022-10-01T08:07:51;6.65;;;4.72;;
10412;SDS011;5252;42.602;23.386;2022-10-01T08:10:19;6.93;;;3.97;;
10412;SDS011;5252;42.602;23.386;2022-10-01T08:12:47;5.45;;;4.10;;
10412;SDS011;5252;42.602;23.386;2022-10-01T08:15:16;7.63;;;4.05;;
10412;SDS011;5252;42.602;23.386;2022-10-01T08:17:43;6.47;;;4.72;;
10412;SDS011;5252;42.602;23.386;2022-10-01T08:20:10;9.82;;;4.47;;
10412;SDS011;5252;42.602;23.386;2022-10-01T08:22:37;6.90;;;4.60;;
10412;SDS011;5252;42.602;23.386;2022-10-01T08:25:04;6.65;;;4.97;;
10412;SDS011;5252;42.602;23.386;2022-10-01T08:27:31;9.82;;;4.72;;
10412;SDS011;5252;42.602;23.386;2022-10-01T08:29:57;7.43;;;5.53;;
10412;SDS011;5252;42.602;23.386;2022-10-01T08:32:25;6.15;;;4.78;;
10412;SDS011;5252;42.602;23.386;2022-10-01T08:34:52;8.52;;;6.15;;
10412;SDS011;5252;42.602;23.386;2022-10-01T08:37:23;7.35;;;5.50;;
10412;SDS011;5252;42.602;23.386;2022-10-01T08:39:51;7.72;;;4.88;;
10412;SDS011;5252;42.602;23.386;2022-10-01T08:42:19;10.02;;;5.53;;
10412;SDS011;5252;42.602;23.386;2022-10-01T08:44:50;9.27;;;5.50;;
10412;SDS011;5252;42.602;23.386;2022-10-01T08:47:20;9.73;;;5.75;;
10412;SDS011;5252;42.602;23.386;2022-10-01T08:49:52;7.22;;;5.28;;
10412;SDS011;5252;42.602;23.386;2022-10-01T08:52:22;10.88;;;5.57;;
10412;SDS011;5252;42.602;23.386;2022-10-01T08:54:50;10.05;;;5.30;;
10412;SDS011;5252;42.602;23.386;2022-10-01T08:57:20;9.40;;;5.13;;
10412;SDS011;5252;42.602;23.386;2022-10-01T08:59:48;7.22;;;5.57;;
10412;SDS011;5252;42.602;23.386;2022-10-01T09:02:17;10.32;;;5.57;;
10412;SDS011;5252;42.602;23.386;2022-10-01T09:04:44;7.15;;;5.80;;
10412;SDS011;5252;42.602;23.386;2022-10-01T09:07:15;7.95;;;5.05;;
10412;SDS011;5252;42.602;23.386;2022-10-01T09:09:46;7.95;;;5.30;;
10412;SDS011;5252;42.602;23.386;2022-10-01T09:12:23;6.30;;;4.32;;
10412;SDS011;5252;42.602;23.386;2022-10-01T09:14:56;7.13;;;4.95;;
10412;SDS011;5252;42.602;23.386;2022-10-01T09:17:30;8.05;;;4.90;;
10412;SDS011;5252;42.602;23.386;2022-10-01T09:20:00;10.77;;;5.50;;
10412;SDS011;5252;42.602;23.386;2022-10-01T09:22:35;7.72;;;5.80;;
10412;SDS011;5252;42.602;23.386;2022-10-01T09:25:08;9.50;;;5.90;;
10412;SDS011;5252;42.602;23.386;2022-10-01T09:27:36;9.25;;;6.57;;
10412;SDS011;5252;42.602;23.386;2022-10-01T09:30:04;8.07;;;6.40;;
10412;SDS011;5252;42.602;23.386;2022-10-01T09:32:32;7.18;;;6.28;;
10412;SDS011;5252;42.602;23.386;2022-10-01T09:35:01;9.73;;;5.97;;
10412;SDS011;5252;42.602;23.386;2022-10-01T09:37:34;12.20;;;6.82;;
10412;SDS011;5252;42.602;23.386;2022-10-01T09:40:09;7.95;;;6.82;;
10412;SDS011;5252;42.602;23.386;2022-10-01T09:42:39;8.95;;;7.60;;
10412;SDS011;5252;42.602;23.386;2022-10-01T09:45:07;10.45;;;7.60;;
10412;SDS011;5252;42.602;23.386;2022-10-01T09:47:36;7.55;;;6.65;;
10412;SDS011;5252;42.602;23.386;2022-10-01T09:50:03;9.73;;;7.80;;
10412;SDS011;5252;42.602;23.386;2022-10-01T09:52:32;11.23;;;7.35;;
10412;SDS011;5252;42.602;23.386;2022-10-01T09:55:00;9.45;;;7.55;;
10412;SDS011;5252;42.602;23.386;2022-10-01T09:57:31;11.85;;;8.43;;
10412;SDS011;5252;42.602;23.386;2022-10-01T10:00:03;9.02;;;7.90;;
10412;SDS011;5252;42.602;23.386;2022-10-01T10:02:30;9.25;;;7.68;;
10412;SDS011;5252;42.602;23.386;2022-10-01T10:04:57;8.70;;;7.22;;
10412;SDS011;5252;42.602;23.386;2022-10-01T10:07:24;6.93;;;6.20;;
10412;SDS011;5252;42.602;23.386;2022-10-01T10:09:51;8.07;;;6.93;;
10412;SDS011;5252;42.602;23.386;2022-10-01T10:12:27;9.63;;;6.40;;
10412;SDS011;5252;42.602;23.386;2022-10-01T10:15:04;7.20;;;5.97;;
10412;SDS011;5252;42.602;23.386;2022-10-01T10:17:31;5.63;;;5.07;;
10412;SDS011;5252;42.602;23.386;2022-10-01T10:20:06;7.60;;;4.07;;
10412;SDS011;5252;42.602;23.386;2022-10-01T10:22:34;4.70;;;3.53;;
10412;SDS011;5252;42.602;23.386;2022-10-01T10:25:09;3.72;;;2.78;;
10412;SDS011;5252;42.602;23.386;2022-10-01T10:27:36;6.68;;;2.80;;
10412;SDS011;5252;42.602;23.386;2022-10-01T10:30:06;6.22;;;2.72;;
10412;SDS011;5252;42.602;23.386;2022-10-01T10:32:33;4.35;;;2.70;;
10412;SDS011;5252;42.602;23.386;2022-10-01T10:35:00;4.57;;;3.17;;
10412;SDS011;5252;42.602;23.386;2022-10-01T10:37:30;3.22;;;2.83;;
10412;SDS011;5252;42.602;23.386;2022-10-01T10:39:58;3.47;;;2.83;;
10412;SDS011;5252;42.602;23.386;2022-10-01T10:42:25;4.85;;;2.67;;
10412;SDS011;5252;42.602;23.386;2022-10-01T10:44:54;4.55;;;2.60;;
10412;SDS011;5252;42.602;23.386;2022-10-01T10:47:22;5.22;;;2.63;;
10412;SDS011;5252;42.602;23.386;2022-10-01T10:49:53;5.03;;;2.97;;
10412;SDS011;5252;42.602;23.386;2022-10-01T10:52:21;3.00;;;2.08;;
10412;SDS011;5252;42.602;23.386;2022-10-01T10:54:54;3.10;;;2.20;;
10412;SDS011;5252;42.602;23.386;2022-10-01T10:57:22;4.78;;;2.50;;
10412;SDS011;5252;42.602;23.386;2022-10-01T10:59:55;3.70;;;2.30;;
10412;SDS011;5252;42.602;23.386;2022-10-01T11:02:24;3.35;;;2.15;;
10412;SDS011;5252;42.602;23.386;2022-10-01T11:04:51;4.47;;;2.22;;
10412;SDS011;5252;42.602;23.386;2022-10-01T11:07:18;4.00;;;2.40;;
10412;SDS011;5252;42.602;23.386;2022-10-01T11:09:50;3.90;;;2.63;;
10412;SDS011;5252;42.602;23.386;2022-10-01T11:12:24;5.07;;;2.15;;
10412;SDS011;5252;42.602;23.386;2022-10-01T11:15:02;4.03;;;2.33;;
10412;SDS011;5252;42.602;23.386;2022-10-01T11:17:40;3.70;;;2.22;;
10412;SDS011;5252;42.602;23.386;2022-10-01T11:20:16;3.10;;;2.00;;
10412;SDS011;5252;42.602;23.386;2022-10-01T11:22:49;3.08;;;2.05;;
10412;SDS011;5252;42.602;23.386;2022-10-01T11:25:26;2.95;;;1.90;;
10412;SDS011;5252;42.602;23.386;2022-10-01T11:27:58;3.20;;;1.95;;
10412;SDS011;5252;42.602;23.386;2022-10-01T11:30:29;2.20;;;2.00;;
10412;SDS011;5252;42.602;23.386;2022-10-01T11:33:00;3.83;;;1.92;;
10412;SDS011;5252;42.602;23.386;2022-10-01T11:35:32;3.03;;;1.90;;
10412;SDS011;5252;42.602;23.386;2022-10-01T11:38:18;2.50;;;1.63;;
10412;SDS011;5252;42.602;23.386;2022-10-01T11:40:50;2.28;;;1.55;;
10412;SDS011;5252;42.602;23.386;2022-10-01T11:43:19;2.38;;;1.73;;
10412;SDS011;5252;42.602;23.386;2022-10-01T11:45:47;6.07;;;2.83;;
10412;SDS011;5252;42.602;23.386;2022-10-01T11:48:18;6.07;;;3.30;;
10412;SDS011;5252;42.602;23.386;2022-10-01T11:50:48;3.63;;;2.63;;
10412;SDS011;5252;42.602;23.386;2022-10-01T11:53:17;6.50;;;3.33;;
10412;SDS011;5252;42.602;23.386;2022-10-01T11:55:47;5.35;;;3.60;;
10412;SDS011;5252;42.602;23.386;2022-10-01T11:58:37;5.68;;;3.58;;
10412;SDS011;5252;42.602;23.386;2022-10-01T12:01:24;6.65;;;4.00;;
10412;SDS011;5252;42.602;23.386;2022-10-01T12:04:02;4.60;;;3.75;;
10412;SDS011;5252;42.602;23.386;2022-10-01T12:06:31;5.45;;;3.65;;
10412;SDS011;5252;42.602;23.386;2022-10-01T12:08:59;6.07;;;4.15;;
10412;SDS011;5252;42.602;23.386;2022-10-01T12:11:28;4.95;;;4.10;;
10412;SDS011;5252;42.602;23.386;2022-10-01T12:13:58;6.90;;;4.05;;
10412;SDS011;5252;42.602;23.386;2022-10-01T12:16:29;8.20;;;5.05;;
10412;SDS011;5252;42.602;23.386;2022-10-01T12:18:59;6.57;;;5.00;;
10412;SDS011;5252;42.602;23.386;2022-10-01T12:21:31;5.97;;;4.18;;
10412;SDS011;5252;42.602;23.386;2022-10-01T12:23:59;4.20;;;3.80;;
10412;SDS011;5252;42.602;23.386;2022-10-01T12:26:31;5.65;;;3.90;;
10412;SDS011;5252;42.602;23.386;2022-10-01T12:29:02;3.72;;;3.42;;
10412;SDS011;5252;42.602;23.386;2022-10-01T12:31:31;8.48;;;3.90;;
10412;SDS011;5252;42.602;23.386;2022-10-01T12:34:03;6.90;;;3.85;;
10412;SDS011;5252;42.602;23.386;2022-10-01T12:36:36;8.95;;;3.47;;
10412;SDS011;5252;42.602;23.386;2022-10-01T12:39:09;4.15;;;3.42;;
10412;SDS011;5252;42.602;23.386;2022-10-01T12:41:42;4.55;;;3.10;;
10412;SDS011;5252;42.602;23.386;2022-10-01T12:44:18;3.70;;;3.38;;
10412;SDS011;5252;42.602;23.386;2022-10-01T12:46:51;4.70;;;3.65;;
10412;SDS011;5252;42.602;23.386;2022-10-01T12:49:24;7.53;;;3.75;;
10412;SDS011;5252;42.602;23.386;2022-10-01T12:51:56;4.28;;;3.17;;
10412;SDS011;5252;42.602;23.386;2022-10-01T12:54:45;6.03;;;3.13;;
10412;SDS011;5252;42.602;23.386;2022-10-01T12:57:17;5.80;;;4.15;;
10412;SDS011;5252;42.602;23.386;2022-10-01T12:59:52;8.00;;;3.83;;
10412;SDS011;5252;42.602;23.386;2022-10-01T13:02:29;5.03;;;3.80;;
10412;SDS011;5252;42.602;23.386;2022-10-01T13:05:05;6.00;;;3.58;;
10412;SDS011;5252;42.602;23.386;2022-10-01T13:07:39;5.40;;;3.83;;
10412;SDS011;5252;42.602;23.386;2022-10-01T13:10:13;4.50;;;4.03;;
10412;SDS011;5252;42.602;23.386;2022-10-01T13:12:50;7.82;;;4.45;;
10412;SDS011;5252;42.602;23.386;2022-10-01T13:15:21;5.75;;;4.13;;
10412;SDS011;5252;42.602;23.386;2022-10-01T13:17:49;7.78;;;4.32;;
10412;SDS011;5252;42.602;23.386;2022-10-01T13:20:19;7.63;;;4.30;;
10412;SDS011;5252;42.602;23.386;2022-10-01T13:22:49;5.28;;;3.63;;
10412;SDS011;5252;42.602;23.386;2022-10-01T13:25:21;6.22;;;3.53;;
10412;SDS011;5252;42.602;23.386;2022-10-01T13:27:52;6.63;;;3.45;;
10412;SDS011;5252;42.602;23.386;2022-10-01T13:30:21;6.80;;;3.40;;
10412;SDS011;5252;42.602;23.386;2022-10-01T13:32:49;6.40;;;3.15;;
10412;SDS011;5252;42.602;23.386;2022-10-01T13:35:21;6.03;;;3.25;;
10412;SDS011;5252;42.602;23.386;2022-10-01T13:37:50;3.90;;;3.15;;
10412;SDS011;5252;42.602;23.386;2022-10-01T13:40:20;5.25;;;3.30;;
10412;SDS011;5252;42.602;23.386;2022-10-01T13:42:47;4.88;;;3.55;;
10412;SDS011;5252;42.602;23.386;2022-10-01T13:48:06;6.32;;;3.10;;
10412;SDS011;5252;42.602;23.386;2022-10-01T13:50:33;4.93;;;3.15;;
10412;SDS011;5252;42.602;23.386;2022-10-01T13:53:05;4.13;;;3.47;;
10412;SDS011;5252;42.602;23.386;2022-10-01T13:55:33;5.43;;;3.20;;
10412;SDS011;5252;42.602;23.386;2022-10-01T13:58:03;4.28;;;2.67;;
10412;SDS011;5252;42.602;23.386;2022-10-01T14:00:30;4.45;;;2.65;;
10412;SDS011;5252;42.602;23.386;2022-10-01T14:03:02;8.10;;;2.85;;
10412;SDS011;5252;42.602;23.386;2022-10-01T14:05:31;5.18;;;2.95;;
10412;SDS011;5252;42.602;23.386;2022-10-01T14:08:02;4.72;;;3.13;;
10412;SDS011;5252;42.602;23.386;2022-10-01T14:10:37;5.78;;;3.00;;
10412;SDS011;5252;42.602;23.386;2022-10-01T14:13:26;3.90;;;3.30;;
10412;SDS011;5252;42.602;23.386;2022-10-01T14:16:11;5.90;;;3.22;;
10412;SDS011;5252;42.602;23.386;2022-10-01T14:18:39;4.85;;;3.28;;
10412;SDS011;5252;42.602;23.386;2022-10-01T14:21:11;4.15;;;3.53;;
10412;SDS011;5252;42.602;23.386;2022-10-01T14:23:42;9.45;;;3.90;;
10412;SDS011;5252;42.602;23.386;2022-10-01T14:26:13;6.45;;;3.50;;
10412;SDS011;5252;42.602;23.386;2022-10-01T14:28:44;5.40;;;3.85;;
10412;SDS011;5252;42.602;23.386;2022-10-01T14:31:15;6.25;;;4.32;;
10412;SDS011;5252;42.602;23.386;2022-10-01T14:33:50;6.15;;;4.22;;
10412;SDS011;5252;42.602;23.386;2022-10-01T14:36:21;6.32;;;4.13;;
10412;SDS011;5252;42.602;23.386;2022-10-01T14:39:01;4.15;;;3.33;;
10412;SDS011;5252;42.602;23.386;2022-10-01T14:41:32;6.70;;;4.20;;
10412;SDS011;5252;42.602;23.386;2022-10-01T14:44:00;5.90;;;3.90;;
10412;SDS011;5252;42.602;23.386;2022-10-01T14:46:26;7.45;;;3.85;;
10412;SDS011;5252;42.602;23.386;2022-10-01T14:48:55;5.85;;;3.63;;
10412;SDS011;5252;42.602;23.386;2022-10-01T14:51:23;6.20;;;3.78;;
10412;SDS011;5252;42.602;23.386;2022-10-01T14:53:50;6.57;;;3.80;;
10412;SDS011;5252;42.602;23.386;2022-10-01T14:56:17;5.75;;;3.30;;
10412;SDS011;5252;42.602;23.386;2022-10-01T14:58:47;4.35;;;3.33;;
10412;SDS011;5252;42.602;23.386;2022-10-01T15:01:17;4.50;;;3.60;;
10412;SDS011;5252;42.602;23.386;2022-10-01T15:03:44;7.45;;;3.50;;